CW0762 Weather Reports


Display with metric or nautical units.
time (UTC)temp
F
wind
direction
speed
MPH
gust
MPH
rain 1hr
in
rain 24hr
in
rain mn
in
humidity
%
barometer
mb
20201125143045 46 288 0.0 2.0 0.00 0.37 0.00 76 1020.3
20201125141526 45 288 0.0 2.0 0.00 0.37 0.00 80 1020.3
20201125140128 44 288 0.0 2.0 0.00 0.37 0.00 82 1020.1
20201125134559 43 288 0.0 1.0 0.00 0.37 0.00 84 1019.8
20201125131525 43 288 0.0 2.0 0.00 0.37 0.00 84 1019.3
20201125130042 43 288 0.0 0.0 0.00 0.37 0.00 84 1019.3
20201125124514 43 288 0.0 0.0 0.00 0.38 0.00 83 1019.0
20201125123018 43 288 0.0 0.0 0.00 0.38 0.00 83 1018.6
20201125121508 43 288 0.0 0.0 0.00 0.38 0.00 82 1018.4
20201125120216 43 288 0.0 0.0 0.00 0.38 0.00 82 1018.2
20201125114617 44 288 0.0 0.0 0.00 0.38 0.00 83 1018.3
20201125113246 44 288 0.0 0.0 0.00 0.38 0.00 83 1018.1
20201125111725 44 288 0.0 0.0 0.00 0.38 0.00 82 1017.9
20201125110202 44 288 0.0 0.0 0.00 0.38 0.00 82 1017.7
20201125104651 45 288 0.0 0.0 0.00 0.38 0.00 81 1017.6
20201125103214 45 288 0.0 1.0 0.00 0.38 0.00 80 1017.5
20201125101642 45 289 0.0 0.0 0.00 0.38 0.00 79 1017.6
20201125100124 46 289 0.0 2.0 0.00 0.38 0.00 78 1017.2
20201125094615 46 289 0.0 4.0 0.00 0.38 0.00 78 1017.1
20201125093129 46 290 0.0 2.0 0.00 0.38 0.00 78 1017.0
20201125091638 46 290 0.0 2.0 0.00 0.38 0.00 77 1016.9
20201125090122 47 290 0.0 2.0 0.00 0.38 0.00 77 1016.8
20201125084552 47 290 0.0 3.0 0.00 0.38 0.00 77 1016.6
20201125083129 47 290 0.0 4.0 0.00 0.38 0.00 78 1016.6
20201125081700 48 290 0.0 2.0 0.00 0.38 0.00 77 1016.2
20201125080111 49 282 1.0 4.0 0.00 0.38 0.00 76 1016.0
20201125074539 50 301 2.0 7.0 0.00 0.38 0.00 75 1015.8
20201125073059 51 294 2.0 5.0 0.00 0.38 0.00 77 1015.5
20201125071533 52 284 1.0 5.0 0.00 0.38 0.00 81 1015.1
20201125070100 52 281 0.0 3.0 0.00 0.38 0.00 82 1014.8
20201125064525 53 281 0.0 3.0 0.00 0.38 0.00 81 1014.4
20201125063038 54 280 0.0 6.0 0.00 0.38 0.00 80 1014.3
20201125060238 56 301 0.0 2.0 0.00 0.38 0.00 81 1013.5
20201125054732 57 301 0.0 3.0 0.00 0.38 0.38 79 1013.0
20201125053142 58 301 0.0 5.0 0.00 0.38 0.38 78 1012.6
20201125051645 58 293 1.0 5.0 0.00 0.38 0.38 92 1012.0
20201125050249 58 184 0.0 0.0 0.00 0.38 0.38 94 1011.3
20201125044627 58 184 0.0 0.0 0.00 0.38 0.38 94 1011.1
20201125043128 58 184 0.0 0.0 0.00 0.38 0.38 94 1010.7
20201125041722 58 184 0.0 1.0 0.00 0.38 0.38 94 1010.4
20201125040115 58 184 0.0 0.0 0.00 0.38 0.38 93 1010.2
20201125034733 58 184 0.0 0.0 0.01 0.38 0.38 93 1009.6
20201125033135 58 184 0.0 0.0 0.34 0.38 0.38 93 1009.7
20201125031610 58 184 0.0 0.0 0.35 0.38 0.38 93 1009.6
20201125030211 59 184 0.0 5.0 0.35 0.38 0.38 92 1009.6
20201125024727 59 298 0.0 5.0 0.34 0.37 0.37 91 1010.1
20201125023128 64 295 3.0 13.0 0.01 0.04 0.04 82 1010.0
20201125021620 69 230 1.0 11.0 0.00 0.03 0.03 86 1007.3
20201125020057 69 160 2.0 11.0 0.00 0.03 0.03 87 1006.5
20201125014558 69 165 2.0 9.0 0.00 0.03 0.03 88 1006.8
20201125013059 69 198 2.0 7.0 0.00 0.03 0.03 88 1007.2
20201125011655 69 144 1.0 6.0 0.00 0.03 0.03 88 1007.6
20201125010136 69 155 1.0 8.0 0.00 0.03 0.03 88 1007.8
20201125004628 69 170 2.0 8.0 0.00 0.03 0.03 88 1008.0
20201125003138 69 162 2.0 7.0 0.00 0.03 0.03 88 1008.2
20201125001555 69 161 0.0 7.0 0.00 0.03 0.03 88 1008.1
20201125000122 69 151 1.0 5.0 0.00 0.03 0.03 88 1008.1
20201124234540 69 153 0.0 6.0 0.00 0.03 0.03 89 1008.1
20201124233040 69 165 0.0 5.0 0.00 0.03 0.03 89 1008.0
20201124231552 70 171 2.0 9.0 0.00 0.03 0.03 88 1007.9
20201124230101 70 150 1.0 8.0 0.00 0.03 0.03 88 1007.8
20201124224553 70 166 2.0 6.0 0.00 0.03 0.03 89 1007.7